createdAt,value
2023-11-17T00:00:10.048Z,8.38
2023-11-17T00:02:52.891Z,8.80
2023-11-17T00:05:26.976Z,8.73
2023-11-17T00:10:43.616Z,8.80
2023-11-17T00:13:13.930Z,8.52
2023-11-17T00:15:47.613Z,8.88
2023-11-17T00:18:29.420Z,7.60
2023-11-17T00:21:12.032Z,7.47
2023-11-17T00:24:00.755Z,6.65
2023-11-17T00:26:32.103Z,8.02
2023-11-17T00:29:10.517Z,7.60
2023-11-17T00:31:48.531Z,7.85
2023-11-17T00:34:27.499Z,8.95
2023-11-17T00:37:04.423Z,8.43
2023-11-17T00:39:37.022Z,7.95
2023-11-17T00:42:12.322Z,7.97
2023-11-17T00:44:44.569Z,8.27
2023-11-17T00:47:17.639Z,7.80
2023-11-17T00:49:48.171Z,8.60
2023-11-17T00:52:19.053Z,8.00
2023-11-17T00:54:58.934Z,7.80
2023-11-17T00:57:34.671Z,8.38
2023-11-17T01:00:09.976Z,7.85
2023-11-17T01:02:49.293Z,8.52
2023-11-17T01:05:25.478Z,8.48
2023-11-17T01:07:53.932Z,8.73
2023-11-17T01:10:33.533Z,7.28
2023-11-17T01:13:25.066Z,7.88
2023-11-17T01:16:00.311Z,7.85
2023-11-17T01:18:34.914Z,8.02
2023-11-17T01:21:05.786Z,7.97
2023-11-17T01:23:50.133Z,8.52
2023-11-17T01:30:26.784Z,6.53
2023-11-17T01:33:16.174Z,6.50
2023-11-17T01:35:53.004Z,7.25
2023-11-17T01:38:20.484Z,7.72
2023-11-17T01:40:48.218Z,7.28
2023-11-17T01:43:22.852Z,7.97
2023-11-17T01:45:56.385Z,6.75
2023-11-17T01:48:33.808Z,6.95
2023-11-17T01:51:03.455Z,7.25
2023-11-17T01:53:41.644Z,5.90
2023-11-17T01:56:09.834Z,7.60
2023-11-17T01:58:37.569Z,7.03
2023-11-17T02:01:17.600Z,6.43
2023-11-17T02:03:55.292Z,6.22
2023-11-17T02:06:28.273Z,5.47
2023-11-17T02:12:53.731Z,6.50
2023-11-17T02:15:29.828Z,6.72
2023-11-17T02:18:09.279Z,5.88
2023-11-17T02:20:38.503Z,6.60
2023-11-17T02:23:19.700Z,6.88
2023-11-17T02:25:56.292Z,6.80
2023-11-17T02:28:49.382Z,6.53
2023-11-17T02:31:30.709Z,5.80
2023-11-17T02:34:11.951Z,6.22
2023-11-17T02:36:46.927Z,6.18
2023-11-17T02:39:27.755Z,6.25
2023-11-17T02:42:03.978Z,6.40
2023-11-17T02:44:37.917Z,6.15
2023-11-17T02:47:07.621Z,5.75
2023-11-17T02:49:55.126Z,6.35
2023-11-17T02:52:46.035Z,6.78
2023-11-17T02:55:20.751Z,6.30
2023-11-17T02:58:05.207Z,5.13
2023-11-17T03:00:36.865Z,6.18
2023-11-17T03:03:06.554Z,6.13
2023-11-17T03:05:37.790Z,5.93
2023-11-17T03:08:05.696Z,6.38
2023-11-17T03:10:39.286Z,6.90
2023-11-17T03:13:18.170Z,5.85
2023-11-17T03:15:55.609Z,5.88
2023-11-17T03:18:40.463Z,6.28
2023-11-17T03:21:20.229Z,5.93
2023-11-17T03:23:54.544Z,6.25
2023-11-17T03:26:25.804Z,5.75
2023-11-17T03:28:54.122Z,5.20
2023-11-17T03:31:27.858Z,6.82
2023-11-17T03:34:08.532Z,5.50
2023-11-17T03:36:39.963Z,6.53
2023-11-17T03:39:13.895Z,6.30
2023-11-17T03:41:47.932Z,6.40
2023-11-17T03:44:21.814Z,5.78
2023-11-17T03:46:58.318Z,5.65
2023-11-17T03:49:29.114Z,6.63
2023-11-17T03:52:04.956Z,6.50
2023-11-17T03:54:35.650Z,5.75
2023-11-17T03:57:04.899Z,6.57
2023-11-17T03:59:44.830Z,6.22
2023-11-17T04:02:12.464Z,5.22
2023-11-17T04:04:40.794Z,5.90
2023-11-17T04:07:09.761Z,5.05
2023-11-17T04:09:36.924Z,5.22
2023-11-17T04:12:05.385Z,6.47
2023-11-17T04:14:39.161Z,4.90
2023-11-17T04:17:08.822Z,3.45
2023-11-17T04:19:38.212Z,3.08
2023-11-17T04:22:07.626Z,2.88
2023-11-17T04:24:35.619Z,3.45
2023-11-17T04:27:02.848Z,2.92
2023-11-17T04:29:32.433Z,3.08
2023-11-17T04:31:59.690Z,4.03
2023-11-17T04:34:27.653Z,2.45
2023-11-17T04:36:54.913Z,3.40
2023-11-17T04:39:25.765Z,3.35
2023-11-17T04:41:53.135Z,3.47
2023-11-17T04:44:20.524Z,3.08
2023-11-17T04:46:49.652Z,3.60
2023-11-17T04:49:17.194Z,3.47
2023-11-17T04:51:48.224Z,3.72
2023-11-17T04:54:16.996Z,3.17
2023-11-17T04:56:44.485Z,3.78
2023-11-17T04:59:14.351Z,3.40
2023-11-17T05:01:42.141Z,3.42
2023-11-17T05:04:09.688Z,3.10
2023-11-17T05:06:38.077Z,3.28
2023-11-17T05:09:12.948Z,3.28
2023-11-17T05:11:40.915Z,3.05
2023-11-17T05:14:13.113Z,2.95
2023-11-17T05:16:46.249Z,2.85
2023-11-17T05:19:16.589Z,2.90
2023-11-17T05:21:44.054Z,3.03
2023-11-17T05:24:11.226Z,2.85
2023-11-17T05:26:41.423Z,3.70
2023-11-17T05:29:09.186Z,3.10
2023-11-17T05:31:36.360Z,3.42
2023-11-17T05:34:10.648Z,3.72
2023-11-17T05:36:41.040Z,3.55
2023-11-17T05:39:09.091Z,3.80
2023-11-17T05:41:36.404Z,3.45
2023-11-17T05:44:05.399Z,3.90
2023-11-17T05:46:32.578Z,3.95
2023-11-17T05:48:59.863Z,3.10
2023-11-17T05:51:26.941Z,2.70
2023-11-17T05:53:54.197Z,3.83
2023-11-17T05:56:24.112Z,3.03
2023-11-17T05:58:53.339Z,3.33
2023-11-17T06:01:20.520Z,3.30
2023-11-17T06:03:47.878Z,3.58
2023-11-17T06:06:15.055Z,3.25
2023-11-17T06:08:42.384Z,4.22
2023-11-17T06:11:10.636Z,3.78
2023-11-17T06:13:41.821Z,3.78
2023-11-17T06:16:09.581Z,3.38
2023-11-17T06:18:38.318Z,3.95
2023-11-17T06:21:05.569Z,3.72
2023-11-17T06:23:35.919Z,3.38
2023-11-17T06:26:03.460Z,3.95
2023-11-17T06:28:30.600Z,3.28
2023-11-17T06:30:58.311Z,3.92
2023-11-17T06:33:25.585Z,3.67
2023-11-17T06:35:52.861Z,4.45
2023-11-17T06:38:21.241Z,5.13
2023-11-17T06:40:49.319Z,3.47
2023-11-17T06:43:16.719Z,4.13
2023-11-17T06:45:53.945Z,4.03
2023-11-17T06:48:21.920Z,4.05
2023-11-17T06:50:52.146Z,4.28
2023-11-17T06:53:20.314Z,3.30
2023-11-17T06:55:47.470Z,4.43
2023-11-17T06:58:14.626Z,3.88
2023-11-17T07:00:42.207Z,2.65
2023-11-17T07:03:09.904Z,2.67
2023-11-17T07:05:37.058Z,1.77
2023-11-17T07:08:09.152Z,2.13
2023-11-17T07:10:45.289Z,2.83
2023-11-17T07:13:15.026Z,2.42
2023-11-17T07:15:42.244Z,2.78
2023-11-17T07:18:12.139Z,2.10
2023-11-17T07:20:40.902Z,1.77
2023-11-17T07:23:10.243Z,2.42
2023-11-17T07:25:42.527Z,3.15
2023-11-17T07:28:12.347Z,2.13
2023-11-17T07:30:41.974Z,1.27
2023-11-17T07:33:10.544Z,2.55
2023-11-17T07:35:41.669Z,2.00
2023-11-17T07:38:09.347Z,1.88
2023-11-17T07:40:36.935Z,2.85
2023-11-17T07:43:13.725Z,2.30
2023-11-17T07:45:45.479Z,1.80
2023-11-17T07:48:13.471Z,1.27
2023-11-17T07:50:47.192Z,1.70
2023-11-17T07:53:34.114Z,1.60
2023-11-17T07:56:04.633Z,1.95
2023-11-17T07:58:32.647Z,1.58
2023-11-17T08:00:59.938Z,1.70
2023-11-17T08:03:28.553Z,1.98
2023-11-17T08:05:57.396Z,1.77
2023-11-17T08:08:27.208Z,1.83
2023-11-17T08:10:58.800Z,1.67
2023-11-17T08:13:26.974Z,2.53
2023-11-17T08:15:58.770Z,2.17
2023-11-17T08:18:27.393Z,2.72
2023-11-17T08:20:55.100Z,3.05
2023-11-17T08:23:26.207Z,3.28
2023-11-17T08:25:54.359Z,3.72
2023-11-17T08:28:23.945Z,6.07
2023-11-17T08:30:53.681Z,5.13
2023-11-17T08:33:20.836Z,4.88
2023-11-17T08:35:47.976Z,3.55
2023-11-17T08:38:17.070Z,3.53
2023-11-17T08:40:46.318Z,3.20
2023-11-17T08:43:14.730Z,2.25
2023-11-17T08:45:42.041Z,3.10
2023-11-17T08:48:12.934Z,2.80
2023-11-17T08:50:40.163Z,2.55
2023-11-17T08:53:07.392Z,2.60
2023-11-17T08:55:34.694Z,2.67
2023-11-17T08:58:01.912Z,1.88
2023-11-17T09:00:32.127Z,1.55
2023-11-17T09:03:00.088Z,1.25
2023-11-17T09:05:27.471Z,1.30
2023-11-17T09:07:55.336Z,1.48
2023-11-17T09:10:24.150Z,0.80
2023-11-17T09:12:51.357Z,0.63
2023-11-17T09:15:20.707Z,1.20
2023-11-17T09:17:53.447Z,1.25
2023-11-17T09:20:25.786Z,1.80
2023-11-17T09:22:53.756Z,3.45
2023-11-17T09:25:24.734Z,3.33
2023-11-17T09:27:58.732Z,3.40
2023-11-17T09:30:29.743Z,3.58
2023-11-17T09:33:03.594Z,3.17
2023-11-17T09:35:32.604Z,3.28
2023-11-17T09:38:01.725Z,3.17
2023-11-17T09:40:35.625Z,2.90
2023-11-17T09:43:17.197Z,2.97
2023-11-17T09:45:55.625Z,3.75
2023-11-17T09:48:26.585Z,3.53
2023-11-17T09:50:57.182Z,3.40
2023-11-17T09:53:26.974Z,3.97
2023-11-17T09:55:55.590Z,3.92
2023-11-17T09:58:23.253Z,3.15
2023-11-17T10:00:52.775Z,2.97
2023-11-17T10:03:45.238Z,3.15
2023-11-17T10:06:29.008Z,3.65
2023-11-17T10:08:59.483Z,3.13
2023-11-17T10:11:27.961Z,3.47
2023-11-17T10:13:57.911Z,3.28
2023-11-17T10:16:26.501Z,3.10
2023-11-17T10:18:55.976Z,3.38
2023-11-17T10:21:26.667Z,3.33
2023-11-17T10:23:54.921Z,3.10
2023-11-17T10:26:23.798Z,3.50
2023-11-17T10:28:53.036Z,3.80
2023-11-17T10:31:21.649Z,4.05
2023-11-17T10:33:56.461Z,3.28
2023-11-17T10:36:25.585Z,3.17
2023-11-17T10:39:05.987Z,3.25
2023-11-17T10:41:34.432Z,2.53
2023-11-17T10:44:03.691Z,1.50
2023-11-17T10:46:37.063Z,1.98
2023-11-17T10:51:51.139Z,2.58
2023-11-17T10:54:19.852Z,2.15
2023-11-17T10:56:51.413Z,2.83
2023-11-17T10:59:24.480Z,2.28
2023-11-17T11:01:55.626Z,2.88
2023-11-17T11:04:30.714Z,2.55
2023-11-17T11:07:00.123Z,2.97
2023-11-17T11:09:32.294Z,3.22
2023-11-17T11:11:59.802Z,3.80
2023-11-17T11:14:28.551Z,3.50
2023-11-17T11:16:56.454Z,2.95
2023-11-17T11:19:41.211Z,3.00
2023-11-17T11:22:19.017Z,2.55
2023-11-17T11:24:48.026Z,3.10
2023-11-17T11:27:18.917Z,2.67
2023-11-17T11:30:00.131Z,2.63
2023-11-17T11:32:28.061Z,2.83
2023-11-17T11:34:58.593Z,3.00
2023-11-17T11:37:30.066Z,2.92
2023-11-17T11:39:57.287Z,3.28
2023-11-17T11:42:24.685Z,3.60
2023-11-17T11:44:52.849Z,4.00
2023-11-17T11:47:25.892Z,3.63
2023-11-17T11:49:54.694Z,3.55
2023-11-17T11:52:30.251Z,3.10
2023-11-17T11:54:57.884Z,3.00
2023-11-17T11:57:30.241Z,4.57
2023-11-17T12:00:08.001Z,4.05
2023-11-17T12:02:58.168Z,3.60
2023-11-17T12:05:30.127Z,4.03
2023-11-17T12:08:03.481Z,4.28
2023-11-17T12:13:45.089Z,3.92
2023-11-17T12:16:15.679Z,3.80
2023-11-17T12:18:47.452Z,3.97
2023-11-17T12:21:20.600Z,3.33
2023-11-17T12:24:08.029Z,3.47
2023-11-17T12:26:40.549Z,3.13
2023-11-17T12:29:12.924Z,3.75
2023-11-17T12:31:40.535Z,5.55
2023-11-17T12:34:08.194Z,2.40
2023-11-17T12:36:38.434Z,3.47
2023-11-17T12:39:08.535Z,2.90
2023-11-17T12:41:37.369Z,4.07
2023-11-17T12:44:08.588Z,3.33
2023-11-17T12:46:36.781Z,3.28
2023-11-17T12:49:10.362Z,3.38
2023-11-17T12:51:37.985Z,2.38
2023-11-17T12:54:08.392Z,2.78
2023-11-17T12:56:35.691Z,2.22
2023-11-17T12:59:02.997Z,3.22
2023-11-17T13:01:31.441Z,3.13
2023-11-17T13:04:03.519Z,2.67
2023-11-17T13:06:32.560Z,2.63
2023-11-17T13:09:01.356Z,2.83
2023-11-17T13:11:34.538Z,3.15
2023-11-17T13:14:02.314Z,3.40
2023-11-17T13:16:33.346Z,3.00
2023-11-17T13:19:04.633Z,3.97
2023-11-17T13:21:32.344Z,2.40
2023-11-17T13:24:02.227Z,3.72
2023-11-17T13:26:33.895Z,2.33
2023-11-17T13:29:01.277Z,2.42
2023-11-17T13:31:37.166Z,2.65
2023-11-17T13:34:17.511Z,2.90
2023-11-17T13:36:45.571Z,2.95
2023-11-17T13:39:16.291Z,2.85
2023-11-17T13:41:47.363Z,2.75
2023-11-17T13:44:30.888Z,2.78
2023-11-17T13:47:02.648Z,2.63
2023-11-17T13:49:37.500Z,2.15
2023-11-17T13:52:11.514Z,2.22
2023-11-17T13:54:40.316Z,2.40
2023-11-17T13:57:09.110Z,2.65
2023-11-17T13:59:37.667Z,2.13
2023-11-17T14:02:11.048Z,2.60
2023-11-17T14:04:46.982Z,2.47
2023-11-17T14:07:16.370Z,2.45
2023-11-17T14:09:46.934Z,3.08
2023-11-17T14:12:16.057Z,2.72
2023-11-17T14:14:44.915Z,2.17
2023-11-17T14:17:13.737Z,2.47
2023-11-17T14:19:44.309Z,2.22
2023-11-17T14:22:12.114Z,3.63
2023-11-17T14:24:42.012Z,2.28
2023-11-17T14:27:12.407Z,2.10
2023-11-17T14:29:44.580Z,1.90
2023-11-17T14:32:21.260Z,2.27
2023-11-17T14:34:51.666Z,2.00
2023-11-17T14:37:20.931Z,2.15
2023-11-17T14:39:48.683Z,2.45
2023-11-17T14:42:17.525Z,2.75
2023-11-17T14:44:45.514Z,2.60
2023-11-17T14:47:13.510Z,2.17
2023-11-17T14:49:44.924Z,1.70
2023-11-17T14:52:13.345Z,1.85
2023-11-17T14:54:41.952Z,1.83
2023-11-17T14:57:12.796Z,2.45
2023-11-17T14:59:43.237Z,1.95
2023-11-17T15:02:14.254Z,3.03
2023-11-17T15:04:44.917Z,4.53
2023-11-17T15:07:15.922Z,2.00
2023-11-17T15:09:46.963Z,3.83
2023-11-17T15:12:17.492Z,1.70
2023-11-17T15:14:45.127Z,3.38
2023-11-17T15:17:16.305Z,2.50
2023-11-17T15:19:45.129Z,2.13
2023-11-17T15:22:13.479Z,1.77
2023-11-17T15:24:42.579Z,1.60
2023-11-17T15:27:18.713Z,2.22
2023-11-17T15:29:49.453Z,2.35
2023-11-17T15:32:22.632Z,2.05
2023-11-17T15:37:20.552Z,1.98
2023-11-17T15:39:48.292Z,2.03
2023-11-17T15:42:18.710Z,1.50
2023-11-17T15:44:46.831Z,1.45
2023-11-17T15:47:17.013Z,1.20
2023-11-17T15:49:47.584Z,1.53
2023-11-17T15:52:15.605Z,2.58
2023-11-17T15:54:48.904Z,1.30
2023-11-17T15:57:21.199Z,2.22
2023-11-17T15:59:48.953Z,1.73
2023-11-17T16:02:18.647Z,1.50
2023-11-17T16:04:50.876Z,1.73
2023-11-17T16:07:24.350Z,2.92
2023-11-17T16:09:52.526Z,1.77
2023-11-17T16:12:20.299Z,2.40
2023-11-17T16:14:48.106Z,2.13
2023-11-17T16:17:18.378Z,2.17
2023-11-17T16:19:50.902Z,2.05
2023-11-17T16:22:18.683Z,1.65
2023-11-17T16:24:52.706Z,2.30
2023-11-17T16:27:22.890Z,1.98
2023-11-17T16:29:50.671Z,1.38
2023-11-17T16:32:21.456Z,2.40
2023-11-17T16:34:49.786Z,2.03
2023-11-17T16:37:17.632Z,1.90
2023-11-17T16:39:46.229Z,1.80
2023-11-17T16:42:13.881Z,2.15
2023-11-17T16:44:45.683Z,1.98
2023-11-17T16:47:16.474Z,2.50
2023-11-17T16:49:44.548Z,1.88
2023-11-17T16:52:14.639Z,2.13
2023-11-17T16:54:43.261Z,3.03
2023-11-17T16:57:10.859Z,2.38
2023-11-17T16:59:42.212Z,1.77
2023-11-17T17:02:15.353Z,2.28
2023-11-17T17:04:44.350Z,3.03
2023-11-17T17:07:15.961Z,1.80
2023-11-17T17:09:45.579Z,2.30
2023-11-17T17:12:13.634Z,2.47
2023-11-17T17:14:43.713Z,2.78
2023-11-17T17:17:11.797Z,2.28
2023-11-17T17:19:39.557Z,2.00
2023-11-17T17:22:07.375Z,3.63
2023-11-17T17:24:38.965Z,2.15
2023-11-17T17:27:11.026Z,3.42
2023-11-17T17:29:38.998Z,2.85
2023-11-17T17:32:09.445Z,3.25
2023-11-17T17:34:39.866Z,2.38
2023-11-17T17:37:07.639Z,2.22
2023-11-17T17:39:35.281Z,6.60
2023-11-17T17:42:03.116Z,4.47
2023-11-17T17:44:33.586Z,3.72
2023-11-17T17:47:02.927Z,2.80
2023-11-17T17:49:35.627Z,2.28
2023-11-17T17:52:09.598Z,2.35
2023-11-17T17:54:37.489Z,2.13
2023-11-17T17:57:06.745Z,2.50
2023-11-17T17:59:37.471Z,1.73
2023-11-17T18:02:05.389Z,3.20
2023-11-17T18:04:34.140Z,2.28
2023-11-17T18:07:02.709Z,2.10
2023-11-17T18:09:33.784Z,2.72
2023-11-17T18:12:01.535Z,1.90
2023-11-17T18:14:29.567Z,2.20
2023-11-17T18:16:57.230Z,2.30
2023-11-17T18:19:28.174Z,2.05
2023-11-17T18:21:58.337Z,1.92
2023-11-17T18:24:26.107Z,2.70
2023-11-17T18:27:00.141Z,2.65
2023-11-17T18:29:29.071Z,2.28
2023-11-17T18:32:00.623Z,2.67
2023-11-17T18:34:28.418Z,1.90
2023-11-17T18:36:56.056Z,2.50
2023-11-17T18:39:26.947Z,2.58
2023-11-17T18:42:04.619Z,2.53
2023-11-17T18:44:33.310Z,3.20
2023-11-17T18:47:03.530Z,3.30
2023-11-17T18:49:35.090Z,4.10
2023-11-17T18:52:05.067Z,5.13
2023-11-17T18:54:33.081Z,5.13
2023-11-17T18:57:00.793Z,5.05
2023-11-17T18:59:28.523Z,3.42
2023-11-17T19:01:56.906Z,4.55
2023-11-17T19:04:24.845Z,3.50
2023-11-17T19:06:53.207Z,3.22
2023-11-17T19:09:29.671Z,3.35
2023-11-17T19:12:01.894Z,3.30
2023-11-17T19:14:29.735Z,3.20
2023-11-17T19:16:57.468Z,3.53
2023-11-17T19:19:26.619Z,6.25
2023-11-17T19:21:59.693Z,6.35
2023-11-17T19:24:32.613Z,4.10
2023-11-17T19:27:33.687Z,3.45
2023-11-17T19:30:02.165Z,3.75
2023-11-17T19:32:29.886Z,3.45
2023-11-17T19:34:57.651Z,3.53
2023-11-17T19:37:26.636Z,3.75
2023-11-17T19:39:59.127Z,4.18
2023-11-17T19:42:27.562Z,3.40
2023-11-17T19:44:57.221Z,3.40
2023-11-17T19:47:32.990Z,2.53
2023-11-17T19:50:01.598Z,4.05
2023-11-17T19:52:31.787Z,3.60
2023-11-17T19:55:01.077Z,4.40
2023-11-17T19:57:28.977Z,3.78
2023-11-17T19:59:57.084Z,4.15
2023-11-17T20:02:28.260Z,4.85
2023-11-17T20:05:00.506Z,5.07
2023-11-17T20:07:31.962Z,3.75
2023-11-17T20:10:07.889Z,2.97
2023-11-17T20:12:50.922Z,2.25
2023-11-17T20:15:19.563Z,3.22
2023-11-17T20:17:56.345Z,2.67
2023-11-17T20:20:27.934Z,2.30
2023-11-17T20:22:59.782Z,2.40
2023-11-17T20:25:27.976Z,3.22
2023-11-17T20:27:57.888Z,3.17
2023-11-17T20:30:26.780Z,3.22
2023-11-17T20:32:59.042Z,2.58
2023-11-17T20:35:30.199Z,2.90
2023-11-17T20:37:58.568Z,2.63
2023-11-17T20:40:26.835Z,3.30
2023-11-17T20:42:56.086Z,3.13
2023-11-17T20:45:25.275Z,3.85
2023-11-17T20:47:53.420Z,4.05
2023-11-17T20:50:26.560Z,3.30
2023-11-17T20:53:02.074Z,3.25
2023-11-17T20:55:30.674Z,3.80
2023-11-17T20:57:58.796Z,4.97
2023-11-17T21:00:27.274Z,4.97
2023-11-17T21:02:59.387Z,5.28
2023-11-17T21:05:29.973Z,5.68
2023-11-17T21:07:58.475Z,6.60
2023-11-17T21:10:32.377Z,6.72
2023-11-17T21:13:06.958Z,5.00
2023-11-17T21:15:43.076Z,5.90
2023-11-17T21:18:15.183Z,6.60
2023-11-17T21:20:48.328Z,6.00
2023-11-17T21:23:16.953Z,6.28
2023-11-17T21:25:46.100Z,6.60
2023-11-17T21:28:22.609Z,6.25
2023-11-17T21:30:50.998Z,6.10
2023-11-17T21:33:24.202Z,5.70
2023-11-17T21:35:52.318Z,7.07
2023-11-17T21:38:19.982Z,6.25
2023-11-17T21:40:58.358Z,7.20
2023-11-17T21:43:29.863Z,6.85
2023-11-17T21:45:59.074Z,6.40
2023-11-17T21:48:28.239Z,6.50
2023-11-17T21:51:01.335Z,6.97
2023-11-17T21:53:33.189Z,6.97
2023-11-17T21:56:01.104Z,7.30
2023-11-17T21:58:34.588Z,6.45
2023-11-17T22:01:02.715Z,7.65
2023-11-17T22:03:34.031Z,6.57
2023-11-17T22:06:02.871Z,7.18
2023-11-17T22:08:36.137Z,6.60
2023-11-17T22:11:04.063Z,7.60
2023-11-17T22:13:31.806Z,7.35
2023-11-17T22:16:00.602Z,7.10
2023-11-17T22:18:31.339Z,6.40
2023-11-17T22:20:59.043Z,7.60
2023-11-17T22:23:34.735Z,6.15
2023-11-17T22:26:02.513Z,7.17
2023-11-17T22:28:30.139Z,7.18
2023-11-17T22:30:57.839Z,5.85
2023-11-17T22:33:28.989Z,7.53
2023-11-17T22:35:56.738Z,6.47
2023-11-17T22:38:26.542Z,6.95
2023-11-17T22:40:59.631Z,6.35
2023-11-17T22:43:27.341Z,8.50
2023-11-17T22:45:54.935Z,6.95
2023-11-17T22:48:23.360Z,7.57
2023-11-17T22:50:50.785Z,6.90
2023-11-17T22:53:18.539Z,6.63
2023-11-17T22:55:46.176Z,7.07
2023-11-17T22:58:13.659Z,5.95
2023-11-17T23:00:41.041Z,8.20
2023-11-17T23:03:13.405Z,7.57
2023-11-17T23:05:44.618Z,7.97
2023-11-17T23:08:15.268Z,6.85
2023-11-17T23:10:43.145Z,7.68
2023-11-17T23:13:13.236Z,7.38
2023-11-17T23:15:40.962Z,6.45
2023-11-17T23:18:08.311Z,8.27
2023-11-17T23:20:35.655Z,7.13
2023-11-17T23:23:02.902Z,7.40
2023-11-17T23:25:30.118Z,7.07
2023-11-17T23:27:58.449Z,6.68
2023-11-17T23:30:25.761Z,7.20
2023-11-17T23:32:53.120Z,6.35
2023-11-17T23:35:20.454Z,7.40
2023-11-17T23:37:48.011Z,6.75
2023-11-17T23:40:18.062Z,8.20
2023-11-17T23:42:49.828Z,6.65
2023-11-17T23:45:18.773Z,6.38
2023-11-17T23:47:46.247Z,6.05
2023-11-17T23:50:16.743Z,6.55
2023-11-17T23:52:44.811Z,7.28
2023-11-17T23:55:14.656Z,6.50
2023-11-17T23:57:42.868Z,6.78
